»·PEaware :: N3539W KSNA-KMHV

N3539W :: KSNA-KMHV

FLIGHT INFORMATION

Flight Status: Arrived
Operator: Privately registered:
United States
More flights under this callsign
Pilot: Joerg P. (23850)
Aircraft: PIPER PA-32 SARATOGA
(PA32)
More flights by this aircraft type
Origin: KSNA John Wayne-Orange Co
United States
Destination: KMHV Mojave
United States
More flights between these airports :: More routes between these airports
Route: +SLI V8 POXKU V363 BAYJY V186 DARTS V459 BERRI V201 PMD
File this flight plan on PilotEdge
Remarks: +CW / ZULU WEATHER SAME AS METARS BUT IMC CEILINGS
Altitude:
(Current/Filed)
12,000ft
Speed:
(Current/Filed)
145kts
Departed: 30-Nov-19 09:23 AM
Arrived: 30-Nov-19 10:11 AM
Distance/Time
Traveled:
84nm/0:48
Distance/Time
To Go:
Arrived

Flight Plot

Page will automatically refresh every two minutes.

Flight plan parsing failed; only flown route is shown


Map Options




Map Legend


Flown Route
Filed Route
Departure Airport
Arrival Airport
Navaid (VOR, NDB)
Fix

Horizontal Profiles

Position Reports

Time Latitude Longitude Heading Altitude Ground
Speed
30-Nov-19 09:07 33.682372 -117.860273 118 59ft 0kts
30-Nov-19 09:07 33.682372 -117.860273 118 59ft 0kts
30-Nov-19 09:09 33.682372 -117.860273 118 59ft 0kts
30-Nov-19 09:10 33.682372 -117.860273 118 59ft 0kts
30-Nov-19 09:10 33.682372 -117.860273 118 59ft 0kts
30-Nov-19 09:11 33.682372 -117.860273 118 59ft 0kts
30-Nov-19 09:13 33.682372 -117.860273 118 59ft 0kts
30-Nov-19 09:13 33.682372 -117.860273 118 59ft 0kts
30-Nov-19 09:14 33.682372 -117.860273 118 59ft 0kts
30-Nov-19 09:16 33.682372 -117.860273 118 59ft 0kts
30-Nov-19 09:16 33.682372 -117.860273 118 59ft 0kts
30-Nov-19 09:17 33.682372 -117.860273 118 59ft 0kts
30-Nov-19 09:18 33.682372 -117.860273 118 59ft 0kts
30-Nov-19 09:19 33.682732 -117.860914 240 59ft 9kts
30-Nov-19 09:20 33.680658 -117.863120 297 59ft 0kts
30-Nov-19 09:21 33.680312 -117.864043 207 59ft 36kts
30-Nov-19 09:22 33.662373 -117.883823 234 785ft 102kts
30-Nov-19 09:23 33.647195 -117.912515 237 1887ft 99kts
30-Nov-19 09:24 33.651441 -117.935352 354 2843ft 100kts
30-Nov-19 09:25 33.679946 -117.930528 7 3809ft 106kts
30-Nov-19 09:26 33.709438 -117.925537 5 4861ft 108kts
30-Nov-19 09:27 33.739571 -117.918208 6 5837ft 111kts
30-Nov-19 09:28 33.776213 -117.911245 10 6003ft 151kts
30-Nov-19 09:29 33.819309 -117.899018 11 5998ft 161kts
30-Nov-19 09:30 33.862284 -117.886771 11 5998ft 162kts
30-Nov-19 09:31 33.903471 -117.875025 11 5997ft 163kts
30-Nov-19 09:32 33.947792 -117.862385 11 5997ft 163kts
30-Nov-19 09:33 33.992156 -117.849723 11 5997ft 163kts
30-Nov-19 09:34 34.035910 -117.834730 40 5992ft 164kts
30-Nov-19 09:35 34.069141 -117.836102 318 6760ft 136kts
30-Nov-19 09:36 34.102780 -117.857520 313 7103ft 142kts
30-Nov-19 09:37 34.129711 -117.889992 291 7567ft 142kts
30-Nov-19 09:38 34.155731 -117.922742 315 8099ft 138kts
30-Nov-19 09:39 34.182525 -117.956725 311 8541ft 138kts
30-Nov-19 09:40 34.207164 -117.991054 299 9061ft 134kts
30-Nov-19 09:41 34.231206 -118.022183 308 9739ft 124kts
30-Nov-19 09:42 34.254607 -118.052120 312 10282ft 122kts
30-Nov-19 09:43 34.275809 -118.081419 294 10856ft 114kts
30-Nov-19 09:44 34.296989 -118.109175 317 11401ft 112kts
30-Nov-19 09:45 34.318355 -118.132650 308 11996ft 103kts
30-Nov-19 09:46 34.342294 -118.158723 312 12004ft 122kts
30-Nov-19 09:47 34.368584 -118.186765 314 12001ft 128kts
30-Nov-19 09:48 34.405425 -118.173451 19 12001ft 157kts
30-Nov-19 09:49 34.443288 -118.146687 18 12038ft 156kts
30-Nov-19 09:50 34.482285 -118.125119 11 12007ft 155kts
30-Nov-19 09:51 34.520242 -118.123134 317 11799ft 139kts
30-Nov-19 09:52 34.554023 -118.150111 319 11191ft 154kts
30-Nov-19 09:53 34.586879 -118.182931 316 10637ft 153kts
30-Nov-19 09:54 34.624234 -118.210893 334 9841ft 165kts
30-Nov-19 09:55 34.664298 -118.237928 331 9079ft 167kts
30-Nov-19 09:56 34.705200 -118.264214 332 8412ft 166kts
30-Nov-19 09:57 34.742984 -118.295574 324 7787ft 163kts
30-Nov-19 09:58 34.771824 -118.331417 288 7410ft 162kts
30-Nov-19 09:59 34.786149 -118.383451 288 6788ft 162kts
30-Nov-19 10:00 34.800911 -118.434452 293 6296ft 154kts
30-Nov-19 10:01 34.834456 -118.428963 49 6301ft 156kts
30-Nov-19 10:02 34.864293 -118.390457 31 6240ft 158kts
30-Nov-19 10:03 34.897355 -118.355988 54 6245ft 157kts
30-Nov-19 10:04 34.928979 -118.321202 51 6299ft 152kts
30-Nov-19 10:05 34.959448 -118.283573 39 5930ft 158kts
30-Nov-19 10:06 34.988643 -118.243815 54 5332ft 139kts
30-Nov-19 10:07 35.015313 -118.218517 38 3981ft 113kts
30-Nov-19 10:08 35.036642 -118.193465 38 3386ft 102kts
30-Nov-19 10:09 35.056480 -118.170168 43 3222ft 103kts
30-Nov-19 10:10 35.063818 -118.156353 139 2768ft 0kts
30-Nov-19 10:11 35.062850 -118.156530 197 2768ft 20kts
30-Nov-19 10:12 35.057065 -118.158950 163 2768ft 9kts

Navigation Log

Ident Type
Flight plan parsing failed, navigation log unavailable